createdAt,value
2022-08-30T00:00:00.230Z,100076.81
2022-08-30T00:02:29.246Z,100076.22
2022-08-30T00:05:01.729Z,100070.09
2022-08-30T00:07:30.056Z,100071.53
2022-08-30T00:09:58.414Z,100073.75
2022-08-30T00:12:26.819Z,100068.66
2022-08-30T00:14:55.151Z,100074.16
2022-08-30T00:17:23.600Z,100076.59
2022-08-30T00:19:52.422Z,100079.88
2022-08-30T00:22:20.584Z,100079.06
2022-08-30T00:24:49.647Z,100083.94
2022-08-30T00:27:18.987Z,100083.94
2022-08-30T00:29:47.226Z,100079.44
2022-08-30T00:32:16.475Z,100080.66
2022-08-30T00:34:44.739Z,100081.91
2022-08-30T00:37:13.296Z,100084.75
2022-08-30T00:39:41.711Z,100077.44
2022-08-30T00:42:11.038Z,100085.38
2022-08-30T00:44:41.536Z,100071.09
2022-08-30T00:47:13.510Z,100076.16
2022-08-30T00:49:45.509Z,100070.41
2022-08-30T00:52:14.529Z,100073.91
2022-08-30T00:54:45.565Z,100065.13
2022-08-30T00:57:15.687Z,100073.88
2022-08-30T00:59:47.499Z,100073.47
2022-08-30T01:02:21.856Z,100079.62
2022-08-30T01:04:54.290Z,100082.09
2022-08-30T01:07:22.799Z,100080.87
2022-08-30T01:09:51.318Z,100079.03
2022-08-30T01:12:19.585Z,100076.22
2022-08-30T01:14:48.308Z,100075.38
2022-08-30T01:17:18.283Z,100080.69
2022-08-30T01:19:56.027Z,100077.84
2022-08-30T01:22:42.497Z,100074.00
2022-08-30T01:25:14.918Z,100076.22
2022-08-30T01:27:50.468Z,100080.50
2022-08-30T01:30:19.227Z,100061.37
2022-08-30T01:32:48.160Z,100076.22
2022-08-30T01:35:20.703Z,100077.87
2022-08-30T01:37:49.650Z,100066.06
2022-08-30T01:40:21.154Z,100066.66
2022-08-30T01:42:50.330Z,100071.31
2022-08-30T01:45:18.472Z,100076.22
2022-08-30T01:47:46.603Z,100073.38
2022-08-30T01:50:16.102Z,100072.53
2022-08-30T01:52:44.097Z,100070.69
2022-08-30T01:55:12.313Z,100065.19
2022-08-30T01:57:41.466Z,100054.84
2022-08-30T02:00:10.234Z,100063.38
2022-08-30T02:02:40.114Z,100058.09
2022-08-30T02:05:09.152Z,100056.47
2022-08-30T02:07:37.272Z,100058.69
2022-08-30T02:10:06.086Z,100049.72
2022-08-30T02:12:34.964Z,100060.66
2022-08-30T02:15:03.510Z,100060.69
2022-08-30T02:17:33.188Z,100055.84
2022-08-30T02:20:02.581Z,100056.63
2022-08-30T02:22:30.900Z,100046.03
2022-08-30T02:24:59.343Z,100047.47
2022-08-30T02:27:27.934Z,100053.13
2022-08-30T02:29:56.336Z,100052.28
2022-08-30T02:32:24.469Z,100054.06
2022-08-30T02:34:53.136Z,100053.28
2022-08-30T02:37:21.920Z,100053.53
2022-08-30T02:39:50.067Z,100056.78
2022-08-30T02:42:18.850Z,100050.94
2022-08-30T02:44:47.348Z,100055.19
2022-08-30T02:47:15.428Z,100054.22
2022-08-30T02:49:44.025Z,100057.22
2022-08-30T02:52:12.116Z,100057.22
2022-08-30T02:54:40.417Z,100056.69
2022-08-30T02:57:20.018Z,100048.75
2022-08-30T02:59:49.745Z,100053.28
2022-08-30T03:02:18.444Z,100046.78
2022-08-30T03:04:46.641Z,100059.00
2022-08-30T03:07:15.413Z,100055.69
2022-08-30T03:09:44.398Z,100053.47
2022-08-30T03:12:13.295Z,100058.75
2022-08-30T03:14:41.593Z,100058.41
2022-08-30T03:17:15.534Z,100049.44
2022-08-30T03:19:46.172Z,100053.66
2022-08-30T03:22:15.157Z,100057.13
2022-08-30T03:24:43.306Z,100056.16
2022-08-30T03:27:11.955Z,100057.56
2022-08-30T03:29:40.674Z,100058.19
2022-08-30T03:32:08.911Z,100061.44
2022-08-30T03:34:37.182Z,100063.72
2022-08-30T03:37:05.965Z,100070.00
2022-08-30T03:39:34.667Z,100069.19
2022-08-30T03:42:03.306Z,100069.59
2022-08-30T03:44:32.490Z,100076.69
2022-08-30T03:47:00.782Z,100076.22
2022-08-30T03:49:28.897Z,100070.09
2022-08-30T03:51:57.527Z,100070.47
2022-08-30T03:54:25.687Z,100074.31
2022-08-30T03:56:53.887Z,100081.59
2022-08-30T03:59:22.484Z,100087.72
2022-08-30T04:01:50.718Z,100086.09
2022-08-30T04:04:21.050Z,100094.19
2022-08-30T04:06:50.125Z,100091.66
2022-08-30T04:09:19.210Z,100090.75
2022-08-30T04:11:47.720Z,100098.47
2022-08-30T04:14:15.824Z,100099.06
2022-08-30T04:16:44.554Z,100096.22
2022-08-30T04:19:12.767Z,100106.97
2022-08-30T04:21:42.916Z,100105.25
2022-08-30T04:24:12.826Z,100100.88
2022-08-30T04:26:40.990Z,100109.00
2022-08-30T04:29:12.372Z,100115.75
2022-08-30T04:31:40.913Z,100109.88
2022-08-30T04:34:14.065Z,100118.25
2022-08-30T04:36:42.602Z,100126.66
2022-08-30T04:39:17.978Z,100130.88
2022-08-30T04:41:46.939Z,100132.97
2022-08-30T04:44:19.125Z,100133.50
2022-08-30T04:46:48.746Z,100139.59
2022-08-30T04:49:17.102Z,100143.03
2022-08-30T04:51:45.757Z,100137.88
2022-08-30T04:54:14.655Z,100145.13
2022-08-30T04:56:43.773Z,100152.06
2022-08-30T04:59:12.035Z,100140.84
2022-08-30T05:01:45.483Z,100154.66
2022-08-30T05:04:15.638Z,100159.69
2022-08-30T05:06:44.411Z,100154.81
2022-08-30T05:09:12.602Z,100154.41
2022-08-30T05:11:40.699Z,100158.69
2022-08-30T05:14:10.942Z,100163.78
2022-08-30T05:16:39.596Z,100166.81
2022-08-30T05:19:08.107Z,100158.84
2022-08-30T05:21:37.200Z,100164.69
2022-08-30T05:24:05.509Z,100155.84
2022-08-30T05:26:38.079Z,100149.84
2022-08-30T05:29:07.051Z,100157.06
2022-08-30T05:31:36.605Z,100151.59
2022-08-30T05:34:05.357Z,100159.16
2022-08-30T05:36:40.767Z,100162.47
2022-08-30T05:39:10.595Z,100162.34
2022-08-30T05:41:39.155Z,100158.09
2022-08-30T05:44:10.276Z,100166.66
2022-08-30T05:46:39.636Z,100163.25
2022-08-30T05:49:08.093Z,100171.41
2022-08-30T05:51:42.916Z,100176.09
2022-08-30T05:54:14.403Z,100177.53
2022-08-30T05:56:45.686Z,100187.69
2022-08-30T05:59:15.357Z,100180.78
2022-08-30T06:01:46.477Z,100180.75
2022-08-30T06:04:15.256Z,100183.63
2022-08-30T06:06:44.848Z,100178.12
2022-08-30T06:09:14.340Z,100174.69
2022-08-30T06:11:44.295Z,100176.91
2022-08-30T06:14:13.694Z,100181.38
2022-08-30T06:16:45.999Z,100175.47
2022-08-30T06:19:15.892Z,100187.66
2022-08-30T06:21:47.846Z,100187.25
2022-08-30T06:24:16.545Z,100191.31
2022-08-30T06:26:47.000Z,100190.31
2022-08-30T06:29:19.878Z,100194.38
2022-08-30T06:31:48.527Z,100192.50
2022-08-30T06:34:17.516Z,100198.19
2022-08-30T06:36:45.939Z,100192.47
2022-08-30T06:39:14.066Z,100192.44
2022-08-30T06:41:43.065Z,100193.03
2022-08-30T06:44:11.441Z,100188.47
2022-08-30T06:46:39.866Z,100187.88
2022-08-30T06:49:08.414Z,100189.69
2022-08-30T06:51:39.301Z,100199.22
2022-08-30T06:54:10.671Z,100188.38
2022-08-30T06:56:55.264Z,100201.00
2022-08-30T06:59:27.070Z,100193.06
2022-08-30T07:01:56.571Z,100197.06
2022-08-30T07:04:25.515Z,100198.31
2022-08-30T07:06:53.708Z,100191.12
2022-08-30T07:09:22.798Z,100183.75
2022-08-30T07:11:52.301Z,100190.84
2022-08-30T07:14:23.533Z,100180.75
2022-08-30T07:16:52.148Z,100196.09
2022-08-30T07:19:21.455Z,100186.72
2022-08-30T07:21:50.666Z,100192.91
2022-08-30T07:24:20.573Z,100200.06
2022-08-30T07:26:52.061Z,100203.00
2022-08-30T07:29:21.397Z,100199.84
2022-08-30T07:31:49.800Z,100200.56
2022-08-30T07:34:20.444Z,100200.09
2022-08-30T07:36:50.935Z,100208.09
2022-08-30T07:39:19.478Z,100205.69
2022-08-30T07:41:48.742Z,100205.22
2022-08-30T07:44:17.690Z,100211.13
2022-08-30T07:46:46.091Z,100213.78
2022-08-30T07:49:14.262Z,100208.09
2022-08-30T07:51:42.859Z,100210.44
2022-08-30T07:54:11.178Z,100205.91
2022-08-30T07:56:39.301Z,100209.47
2022-08-30T07:59:07.807Z,100206.94
2022-08-30T08:01:36.231Z,100206.03
2022-08-30T08:04:04.746Z,100208.53
2022-08-30T08:06:35.194Z,100210.31
2022-08-30T08:09:04.216Z,100212.41
2022-08-30T08:11:34.126Z,100200.31
2022-08-30T08:14:06.996Z,100200.34
2022-08-30T08:16:37.227Z,100202.81
2022-08-30T08:19:09.285Z,100202.06
2022-08-30T08:21:38.235Z,100193.69
2022-08-30T08:24:07.407Z,100201.09
2022-08-30T08:26:37.676Z,100203.78
2022-08-30T08:29:08.615Z,100200.84
2022-08-30T08:31:37.656Z,100201.09
2022-08-30T08:34:06.674Z,100197.19
2022-08-30T08:36:36.055Z,100202.41
2022-08-30T08:39:06.259Z,100201.97
2022-08-30T08:41:59.469Z,100204.03
2022-08-30T08:44:45.432Z,100208.91
2022-08-30T08:47:26.111Z,100206.81
2022-08-30T08:49:59.741Z,100193.66
2022-08-30T08:53:04.186Z,100196.63
2022-08-30T08:55:32.847Z,100190.88
2022-08-30T08:58:02.079Z,100199.44
2022-08-30T09:00:32.188Z,100198.56
2022-08-30T09:03:03.213Z,100192.66
2022-08-30T09:05:38.245Z,100195.06
2022-08-30T09:08:14.692Z,100201.94
2022-08-30T09:11:01.076Z,100190.16
2022-08-30T09:13:29.594Z,100200.25
2022-08-30T09:16:00.266Z,100185.25
2022-08-30T09:18:49.046Z,100191.69
2022-08-30T09:21:25.925Z,100187.84
2022-08-30T09:24:02.099Z,100175.50
2022-08-30T09:26:35.237Z,100181.03
2022-08-30T09:29:05.863Z,100170.38
2022-08-30T09:31:48.900Z,100177.47
2022-08-30T09:34:21.997Z,100177.03
2022-08-30T09:36:53.638Z,100174.75
2022-08-30T09:39:38.288Z,100170.78
2022-08-30T09:42:23.828Z,100173.94
2022-08-30T09:45:10.661Z,100166.37
2022-08-30T09:47:42.204Z,100165.91
2022-08-30T09:50:21.275Z,100160.28
2022-08-30T09:53:23.668Z,100160.75
2022-08-30T09:56:06.583Z,100162.16
2022-08-30T09:59:01.096Z,100147.03
2022-08-30T10:01:42.584Z,100152.22
2022-08-30T10:04:56.645Z,100153.16
2022-08-30T10:07:34.815Z,100144.63
2022-08-30T10:10:09.451Z,100146.66
2022-08-30T10:13:00.772Z,100144.31
2022-08-30T10:15:32.116Z,100143.97
2022-08-30T10:18:43.721Z,100131.91
2022-08-30T10:21:48.014Z,100133.19
2022-08-30T10:24:24.415Z,100129.22
2022-08-30T10:27:11.428Z,100126.56
2022-08-30T10:29:49.062Z,100125.88
2022-08-30T10:32:28.579Z,100126.16
2022-08-30T10:35:07.094Z,100130.75
2022-08-30T10:37:43.345Z,100128.87
2022-08-30T10:40:58.515Z,100119.94
2022-08-30T10:43:43.044Z,100122.25
2022-08-30T10:46:39.661Z,100115.63
2022-08-30T10:49:16.351Z,100124.78
2022-08-30T10:52:12.433Z,100119.75
2022-08-30T10:55:04.023Z,100108.44
2022-08-30T10:57:32.682Z,100111.53
2022-08-30T11:00:07.989Z,100103.41
2022-08-30T11:03:00.771Z,100101.31
2022-08-30T11:05:40.711Z,100107.34
2022-08-30T11:08:20.510Z,100106.81
2022-08-30T11:11:29.363Z,100099.03
2022-08-30T11:14:05.833Z,100104.72
2022-08-30T11:16:44.232Z,100102.03
2022-08-30T11:19:24.375Z,100103.09
2022-08-30T11:22:17.141Z,100103.00
2022-08-30T11:25:10.233Z,100099.69
2022-08-30T11:27:42.016Z,100093.72
2022-08-30T11:30:26.646Z,100096.75
2022-08-30T11:33:11.869Z,100095.03
2022-08-30T11:35:50.065Z,100094.47
2022-08-30T11:38:28.338Z,100095.06
2022-08-30T11:40:56.613Z,100080.81
2022-08-30T11:43:40.190Z,100084.06
2022-08-30T11:46:21.169Z,100076.22
2022-08-30T11:49:15.690Z,100075.41
2022-08-30T11:52:28.045Z,100074.78
2022-08-30T11:55:27.293Z,100071.72
2022-08-30T11:58:31.055Z,100063.19
2022-08-30T12:01:42.331Z,100066.69
2022-08-30T12:04:47.392Z,100064.22
2022-08-30T12:07:53.659Z,100056.16
2022-08-30T12:10:43.571Z,100062.75
2022-08-30T12:13:36.982Z,100055.44
2022-08-30T12:16:13.189Z,100054.78
2022-08-30T12:18:57.166Z,100048.09
2022-08-30T12:21:43.819Z,100045.97
2022-08-30T12:24:29.534Z,100042.28
2022-08-30T12:26:59.525Z,100037.50
2022-08-30T12:29:30.415Z,100035.03
2022-08-30T12:32:09.298Z,100028.88
2022-08-30T12:34:52.344Z,100021.91
2022-08-30T12:37:26.389Z,100030.25
2022-08-30T12:40:22.418Z,100018.75
2022-08-30T12:42:53.025Z,100016.75
2022-08-30T12:45:25.860Z,100007.94
2022-08-30T12:48:09.479Z,100007.09
2022-08-30T12:50:57.462Z,100012.84
2022-08-30T12:53:29.998Z,100014.25
2022-08-30T12:56:05.681Z,100005.88
2022-08-30T12:58:34.192Z,100009.56
2022-08-30T13:01:13.480Z,100003.97
2022-08-30T13:03:42.169Z,99994.22
2022-08-30T13:06:10.284Z,99995.97
2022-08-30T13:08:45.979Z,99993.59
2022-08-30T13:11:21.323Z,99988.69
2022-08-30T13:13:52.620Z,99984.88
2022-08-30T13:16:36.149Z,99988.03
2022-08-30T13:19:34.398Z,99983.78
2022-08-30T13:22:04.616Z,99977.38
2022-08-30T13:24:32.830Z,99974.72
2022-08-30T13:27:11.498Z,99978.00
2022-08-30T13:29:40.545Z,99973.25
2022-08-30T13:32:10.354Z,99970.53
2022-08-30T13:34:39.220Z,99970.06
2022-08-30T13:37:44.144Z,99967.41
2022-08-30T13:40:03.887Z,99963.16
2022-08-30T13:42:33.202Z,99961.28
2022-08-30T13:45:01.716Z,99962.59
2022-08-30T13:47:32.685Z,99956.22
2022-08-30T13:50:02.114Z,99951.44
2022-08-30T13:52:30.406Z,99952.59
2022-08-30T13:54:58.784Z,99947.94
2022-08-30T14:00:21.983Z,99952.91
2022-08-30T14:02:54.670Z,99948.31
2022-08-30T14:11:16.264Z,99933.47
2022-08-30T14:16:39.738Z,99937.34
2022-08-30T14:19:11.546Z,99938.44
2022-08-30T14:21:39.750Z,99937.22
2022-08-30T14:24:08.233Z,99928.91
2022-08-30T14:26:45.881Z,99919.25
2022-08-30T14:29:19.217Z,99907.34
2022-08-30T14:31:51.158Z,99924.72
2022-08-30T14:34:19.629Z,99929.16
2022-08-30T14:36:48.573Z,99925.63
2022-08-30T14:39:18.816Z,99925.37
2022-08-30T14:41:53.557Z,99918.06
2022-08-30T14:44:25.262Z,99913.25
2022-08-30T14:46:54.867Z,99919.59
2022-08-30T14:49:24.147Z,99920.09
2022-08-30T14:51:53.277Z,99915.53
2022-08-30T14:54:26.107Z,99920.28
2022-08-30T14:56:55.871Z,99914.94
2022-08-30T14:59:25.488Z,99910.56
2022-08-30T15:01:54.577Z,99916.13
2022-08-30T15:04:23.236Z,99915.56
2022-08-30T15:06:52.528Z,99910.31
2022-08-30T15:09:23.841Z,99909.22
2022-08-30T15:11:58.911Z,99905.28
2022-08-30T15:14:31.727Z,99908.28
2022-08-30T15:17:02.881Z,99907.31
2022-08-30T15:19:31.931Z,99901.19
2022-08-30T15:22:02.745Z,99901.81
2022-08-30T15:24:31.893Z,99894.94
2022-08-30T15:27:02.393Z,99903.78
2022-08-30T15:29:32.037Z,99899.56
2022-08-30T15:32:02.629Z,99895.63
2022-08-30T15:34:31.765Z,99891.38
2022-08-30T15:37:00.509Z,99884.75
2022-08-30T15:39:29.510Z,99880.19
2022-08-30T15:42:00.953Z,99881.53
2022-08-30T15:44:31.571Z,99889.56
2022-08-30T15:47:00.006Z,99890.41
2022-08-30T15:49:28.824Z,99888.78
2022-08-30T15:52:01.754Z,99886.91
2022-08-30T15:54:29.991Z,99890.59
2022-08-30T15:57:01.409Z,99884.66
2022-08-30T15:59:31.527Z,99894.78
2022-08-30T16:02:00.291Z,99889.84
2022-08-30T16:04:29.028Z,99898.94
2022-08-30T16:06:57.350Z,99891.59
2022-08-30T16:09:29.991Z,99877.41
2022-08-30T16:12:04.670Z,99892.91
2022-08-30T16:14:34.651Z,99892.06
2022-08-30T16:17:03.611Z,99883.97
2022-08-30T16:19:33.278Z,99887.37
2022-08-30T16:22:01.852Z,99880.41
2022-08-30T16:24:30.614Z,99885.94
2022-08-30T16:26:58.761Z,99878.97
2022-08-30T16:29:27.036Z,99884.50
2022-08-30T16:31:59.884Z,99879.41
2022-08-30T16:34:28.086Z,99875.31
2022-08-30T16:36:56.699Z,99875.84
2022-08-30T16:39:25.036Z,99873.19
2022-08-30T16:41:53.379Z,99875.31
2022-08-30T16:44:21.844Z,99878.09
2022-08-30T16:46:53.190Z,99877.97
2022-08-30T16:49:23.354Z,99881.94
2022-08-30T16:51:54.026Z,99879.78
2022-08-30T16:54:23.351Z,99882.50
2022-08-30T16:56:52.198Z,99889.63
2022-08-30T16:59:20.632Z,99890.88
2022-08-30T17:01:49.567Z,99881.00
2022-08-30T17:04:19.565Z,99878.59
2022-08-30T17:07:07.386Z,99890.44
2022-08-30T17:09:42.108Z,99893.50
2022-08-30T17:12:10.782Z,99893.72
2022-08-30T17:14:38.987Z,99899.47
2022-08-30T17:17:07.159Z,99904.41
2022-08-30T17:19:41.189Z,99903.78
2022-08-30T17:22:12.409Z,99906.03
2022-08-30T17:24:41.591Z,99912.47
2022-08-30T17:27:12.686Z,99906.50
2022-08-30T17:29:40.919Z,99920.34
2022-08-30T17:32:09.489Z,99920.81
2022-08-30T17:34:37.669Z,99920.19
2022-08-30T17:37:07.748Z,99906.88
2022-08-30T17:39:36.884Z,99920.34
2022-08-30T17:42:05.458Z,99917.22
2022-08-30T17:44:36.276Z,99923.59
2022-08-30T17:47:05.801Z,99919.94
2022-08-30T17:49:34.082Z,99927.91
2022-08-30T17:52:03.242Z,99926.06
2022-08-30T17:54:33.749Z,99926.41
2022-08-30T17:57:10.816Z,99936.94
2022-08-30T17:59:40.814Z,99940.37
2022-08-30T18:02:11.111Z,99931.94
2022-08-30T18:04:42.075Z,99941.09
2022-08-30T18:07:12.417Z,99952.41
2022-08-30T18:09:42.331Z,99947.34
2022-08-30T18:12:12.258Z,99950.53
2022-08-30T18:14:40.746Z,99949.63
2022-08-30T18:17:10.048Z,99955.87
2022-08-30T18:19:46.119Z,99953.38
2022-08-30T18:22:16.300Z,99949.94
2022-08-30T18:24:44.985Z,99952.03
2022-08-30T18:27:13.360Z,99953.72
2022-08-30T18:29:42.079Z,99966.09
2022-08-30T18:32:11.574Z,99962.19
2022-08-30T18:34:40.488Z,99967.12
2022-08-30T18:37:14.026Z,99974.28
2022-08-30T18:39:45.055Z,99981.28
2022-08-30T18:42:15.982Z,99979.78
2022-08-30T18:44:44.157Z,99987.63
2022-08-30T18:47:12.634Z,99984.16
2022-08-30T18:49:41.401Z,99975.50
2022-08-30T18:52:10.644Z,99980.09
2022-08-30T18:54:41.369Z,99979.19
2022-08-30T18:57:10.413Z,99986.75
2022-08-30T18:59:42.065Z,99983.44
2022-08-30T19:02:14.573Z,99982.69
2022-08-30T19:04:43.653Z,99978.47
2022-08-30T19:07:16.189Z,99979.41
2022-08-30T19:09:45.350Z,99980.66
2022-08-30T19:12:14.385Z,99983.06
2022-08-30T19:14:43.229Z,99985.41
2022-08-30T19:17:11.732Z,99986.31
2022-08-30T19:19:47.496Z,99986.97
2022-08-30T19:22:19.493Z,99980.03
2022-08-30T19:24:50.231Z,99988.81
2022-08-30T19:27:21.518Z,99976.56
2022-08-30T19:30:08.585Z,99977.97
2022-08-30T19:32:37.096Z,99975.25
2022-08-30T19:35:07.231Z,99976.03
2022-08-30T19:37:36.554Z,99981.66
2022-08-30T19:40:07.748Z,99980.38
2022-08-30T19:42:43.332Z,99983.78
2022-08-30T19:45:18.253Z,99986.56
2022-08-30T19:47:47.905Z,99978.13
2022-08-30T19:50:20.145Z,99974.59
2022-08-30T19:52:54.974Z,99987.31
2022-08-30T19:55:28.445Z,99987.28
2022-08-30T19:57:59.072Z,99982.09
2022-08-30T20:00:31.299Z,99979.38
2022-08-30T20:03:01.174Z,99988.63
2022-08-30T20:05:31.680Z,99992.78
2022-08-30T20:08:00.287Z,99992.22
2022-08-30T20:10:28.515Z,99985.91
2022-08-30T20:12:57.170Z,99983.72
2022-08-30T20:15:26.484Z,99989.19
2022-08-30T20:18:14.505Z,99989.12
2022-08-30T20:20:49.438Z,99987.50
2022-08-30T20:23:23.121Z,99987.50
2022-08-30T20:25:55.486Z,99990.75
2022-08-30T20:28:25.155Z,99985.59
2022-08-30T20:30:55.998Z,99978.13
2022-08-30T20:33:25.819Z,99974.47
2022-08-30T20:35:54.354Z,99967.69
2022-08-30T20:38:23.867Z,99961.34
2022-08-30T20:40:56.664Z,99957.03
2022-08-30T20:43:28.821Z,99963.31
2022-08-30T20:45:57.090Z,99963.22
2022-08-30T20:48:28.759Z,99965.50
2022-08-30T20:50:56.904Z,99961.22
2022-08-30T20:53:25.308Z,99966.12
2022-08-30T20:55:53.762Z,99959.66
2022-08-30T20:58:22.417Z,99962.44
2022-08-30T21:00:54.956Z,99968.59
2022-08-30T21:03:25.844Z,99964.47
2022-08-30T21:05:56.868Z,99971.41
2022-08-30T21:08:25.413Z,99971.41
2022-08-30T21:10:54.624Z,99962.87
2022-08-30T21:13:23.594Z,99968.78
2022-08-30T21:15:54.694Z,99960.84
2022-08-30T21:18:26.025Z,99943.44
2022-08-30T21:20:54.405Z,99958.91
2022-08-30T21:23:23.093Z,99959.19
2022-08-30T21:25:51.604Z,99966.62
2022-08-30T21:28:19.915Z,99974.69
2022-08-30T21:30:48.282Z,99972.16
2022-08-30T21:33:17.011Z,99969.87
2022-08-30T21:36:03.950Z,99972.25
2022-08-30T21:38:32.370Z,99969.38
2022-08-30T21:41:00.489Z,99978.03
2022-08-30T21:43:28.590Z,99978.41
2022-08-30T21:45:57.077Z,99990.75
2022-08-30T21:48:25.379Z,99988.38
2022-08-30T21:50:55.261Z,99989.56
2022-08-30T21:53:23.978Z,99993.91
2022-08-30T21:55:52.253Z,99997.19
2022-08-30T21:58:20.436Z,99995.81
2022-08-30T22:00:49.125Z,99997.25
2022-08-30T22:03:17.638Z,100001.94
2022-08-30T22:05:52.118Z,99998.09
2022-08-30T22:08:20.517Z,100008.91
2022-08-30T22:10:48.469Z,100001.75
2022-08-30T22:13:17.602Z,99996.69
2022-08-30T22:15:46.542Z,99997.91
2022-08-30T22:18:14.832Z,99995.25
2022-08-30T22:20:43.808Z,99999.09
2022-08-30T22:23:15.773Z,99998.09
2022-08-30T22:25:47.601Z,99996.88
2022-08-30T22:28:16.174Z,100000.94
2022-08-30T22:30:45.462Z,99999.69
2022-08-30T22:33:14.999Z,100002.16
2022-08-30T22:35:44.207Z,100003.81
2022-08-30T22:38:14.103Z,100004.59
2022-08-30T22:40:50.735Z,100010.13
2022-08-30T22:43:19.272Z,100000.34
2022-08-30T22:45:47.504Z,100000.19
2022-08-30T22:48:16.140Z,99995.69
2022-08-30T22:50:44.541Z,99989.81
2022-08-30T22:53:12.721Z,99988.19
2022-08-30T22:55:41.327Z,99977.03
2022-08-30T22:58:09.898Z,99979.03
2022-08-30T23:00:39.802Z,99973.16
2022-08-30T23:03:12.191Z,99976.59
2022-08-30T23:05:41.028Z,99975.97
2022-08-30T23:08:09.689Z,99963.13
2022-08-30T23:10:38.710Z,99965.56
2022-08-30T23:13:06.840Z,99966.41
2022-08-30T23:15:34.927Z,99972.53
2022-08-30T23:18:04.685Z,99972.53
2022-08-30T23:20:33.139Z,99964.22
2022-08-30T23:23:01.174Z,99959.94
2022-08-30T23:25:52.042Z,99964.44
2022-08-30T23:28:39.916Z,99960.75
2022-08-30T23:31:33.289Z,99968.69
2022-08-30T23:34:21.084Z,99955.09
2022-08-30T23:37:08.597Z,99963.19
2022-08-30T23:39:56.534Z,99959.53
2022-08-30T23:42:43.909Z,99960.34
2022-08-30T23:45:31.071Z,99959.53
2022-08-30T23:48:19.008Z,99963.81
2022-08-30T23:51:05.644Z,99965.81
2022-08-30T23:53:52.695Z,99963.37
2022-08-30T23:56:44.414Z,99955.06
2022-08-30T23:59:32.014Z,99965.66
